Time;durP1;ratioP1;P1;durP2;ratioP2;P2;SDS_P1;SDS_P2;PMS_P1;PMS_P2;Temp;Humidity;BMP_temperature;BMP_pressure;BME280_temperature;BME280_humidity;BME280_pressure;Samples;Min_cycle;Max_cycle;Signal;HPM_P1;HPM_P2
2022/05/31 00:01:32;;;;;;;5.65;2.33;;;11.30;99.90;;;;;;5045181;28;20112;-57
2022/05/31 00:03:59;;;;;;;8.32;3.13;;;11.30;99.90;;;;;;5077449;28;20143;-56
2022/05/31 00:06:26;;;;;;;4.93;2.55;;;11.30;99.90;;;;;;5045264;28;20041;-55
2022/05/31 00:08:53;;;;;;;7.85;2.60;;;11.20;99.90;;;;;;5045337;28;20041;-61
2022/05/31 00:11:20;;;;;;;8.30;2.58;;;11.30;99.90;;;;;;5075841;28;20132;-56
2022/05/31 00:13:47;;;;;;;7.75;3.20;;;11.30;99.90;;;;;;5046041;28;20748;-55
2022/05/31 00:16:16;;;;;;;6.45;2.67;;;11.20;99.90;;;;;;5041893;28;20698;-54
2022/05/31 00:18:43;;;;;;;5.90;2.97;;;11.10;99.90;;;;;;5045988;28;20041;-56
2022/05/31 00:21:10;;;;;;;8.07;2.92;;;11.20;99.90;;;;;;5046365;28;20072;-56
2022/05/31 00:23:39;;;;;;;5.18;2.78;;;11.20;99.90;;;;;;5045741;28;20052;-61
2022/05/31 00:26:07;;;;;;;10.13;2.88;;;11.20;99.90;;;;;;5045653;28;20102;-54
2022/05/31 00:28:33;;;;;;;5.97;2.85;;;11.30;99.90;;;;;;5046307;28;20076;-57
2022/05/31 00:31:00;;;;;;;8.90;3.03;;;11.30;99.90;;;;;;5045507;28;20514;-57
2022/05/31 00:33:27;;;;;;;4.78;2.72;;;11.30;99.90;;;;;;5044665;28;20056;-54
2022/05/31 00:35:54;;;;;;;5.63;2.63;;;11.30;99.90;;;;;;5044450;28;20128;-52
2022/05/31 00:38:21;;;;;;;3.92;2.35;;;11.30;99.90;;;;;;5045752;28;20049;-55
2022/05/31 00:40:47;;;;;;;6.40;2.75;;;11.30;99.90;;;;;;5048162;28;20088;-54
2022/05/31 00:43:18;;;;;;;7.10;3.28;;;11.40;99.90;;;;;;5049146;28;20040;-54
2022/05/31 00:45:57;;;;;;;7.57;2.78;;;11.40;99.90;;;;;;5049451;28;20044;-56
2022/05/31 00:48:30;;;;;;;6.10;3.00;;;11.30;99.90;;;;;;5048034;28;20041;-55
2022/05/31 00:51:03;;;;;;;4.18;2.70;;;11.30;99.90;;;;;;5048170;28;20073;-59
2022/05/31 00:53:35;;;;;;;3.88;2.88;;;11.10;99.90;;;;;;5047585;28;20041;-55
2022/05/31 00:56:04;;;;;;;6.68;4.25;;;10.90;99.90;;;;;;5049436;28;20080;-52
2022/05/31 00:58:43;;;;;;;6.82;3.88;;;10.90;99.90;;;;;;5047832;28;20508;-55
2022/05/31 01:01:12;;;;;;;7.78;3.20;;;11.00;99.90;;;;;;5043440;28;20136;-54
2022/05/31 01:03:39;;;;;;;11.50;4.00;;;11.10;99.90;;;;;;5044876;28;20441;-54
2022/05/31 01:06:07;;;;;;;5.68;3.20;;;11.10;99.90;;;;;;5047834;28;20055;-55
2022/05/31 01:08:36;;;;;;;8.98;3.33;;;11.00;99.90;;;;;;5049186;28;20127;-56
2022/05/31 01:11:03;;;;;;;7.13;2.35;;;10.90;99.90;;;;;;5080043;28;20076;-57
2022/05/31 01:13:30;;;;;;;5.90;1.98;;;10.70;99.90;;;;;;5048860;28;20045;-56
2022/05/31 01:16:06;;;;;;;2.75;1.42;;;10.60;99.90;;;;;;5079694;28;20512;-56
2022/05/31 01:18:33;;;;;;;5.70;1.73;;;10.60;99.90;;;;;;4696081;28;10000076;-57
2022/05/31 01:21:00;;;;;;;5.50;1.75;;;10.50;99.90;;;;;;5047233;28;20127;-60
2022/05/31 01:23:27;;;;;;;4.38;1.38;;;10.50;99.90;;;;;;5048524;28;20143;-55
2022/05/31 01:26:05;;;;;;;4.30;1.70;;;10.50;99.90;;;;;;5080283;28;20510;-55
2022/05/31 01:28:42;;;;;;;2.60;1.85;;;10.50;99.90;;;;;;5081055;28;20049;-56
2022/05/31 01:31:39;;;;;;;6.93;3.47;;;10.40;99.90;;;;;;5045642;28;20080;-55
2022/05/31 01:34:19;;;;;;;3.70;2.25;;;10.40;99.90;;;;;;5026681;28;20045;-52
2022/05/31 01:36:46;;;;;;;6.28;2.92;;;10.50;99.90;;;;;;5054845;28;20144;-55
2022/05/31 01:39:21;;;;;;;8.45;2.88;;;10.50;99.90;;;;;;5048743;28;20072;-54
2022/05/31 01:42:17;;;;;;;4.50;2.78;;;10.50;99.90;;;;;;5047989;28;21408;-53
2022/05/31 01:44:46;;;;;;;3.13;2.83;;;10.60;99.90;;;;;;5046793;28;20084;-57
2022/05/31 01:47:12;;;;;;;6.97;2.72;;;10.50;99.90;;;;;;5046843;28;20037;-55
2022/05/31 01:49:41;;;;;;;4.03;2.08;;;10.50;99.90;;;;;;5046646;28;20119;-55
2022/05/31 01:52:10;;;;;;;5.85;2.20;;;10.50;99.90;;;;;;5046029;28;20138;-59
2022/05/31 01:54:41;;;;;;;;;;;10.50;99.90;;;;;;5048288;28;20076;-58
2022/05/31 01:57:10;;;;;;;4.97;2.58;;;10.50;99.90;;;;;;5047744;28;19924;-55
2022/05/31 01:59:40;;;;;;;5.07;2.28;;;10.40;99.90;;;;;;5046328;28;20037;-55
2022/05/31 02:02:07;;;;;;;5.32;3.20;;;10.50;99.90;;;;;;5078581;28;20132;-56
2022/05/31 02:04:34;;;;;;;8.43;3.25;;;10.50;99.90;;;;;;5047961;28;20045;-54
2022/05/31 02:07:12;;;;;;;7.18;3.30;;;10.50;99.90;;;;;;5046740;28;20499;-54
2022/05/31 02:09:39;;;;;;;4.57;3.80;;;10.50;99.90;;;;;;5044486;28;20131;-54
2022/05/31 02:12:07;;;;;;;4.55;2.88;;;10.40;99.90;;;;;;5047825;28;20063;-54
2022/05/31 02:14:33;;;;;;;5.35;3.33;;;10.40;99.90;;;;;;5079619;28;20076;-53
2022/05/31 02:17:00;;;;;;;3.95;2.95;;;10.40;99.90;;;;;;5047351;28;20200;-56
2022/05/31 02:19:28;;;;;;;5.05;2.80;;;10.40;99.90;;;;;;5047255;28;20049;-53
2022/05/31 02:21:57;;;;;;;3.38;2.50;;;10.40;99.90;;;;;;5047208;28;20103;-52
2022/05/31 02:24:24;;;;;;;5.53;2.50;;;10.40;99.90;;;;;;5045894;28;20507;-56
2022/05/31 02:26:51;;;;;;;4.95;2.40;;;10.40;99.90;;;;;;5046149;28;20274;-53
2022/05/31 02:29:20;;;;;;;3.33;2.72;;;10.40;99.90;;;;;;5047175;28;20080;-56
2022/05/31 02:31:47;;;;;;;5.07;2.20;;;10.40;99.90;;;;;;5045417;28;20053;-56
2022/05/31 02:34:19;;;;;;;6.47;2.55;;;10.30;99.90;;;;;;5047089;28;20191;-55
2022/05/31 02:36:47;;;;;;;8.23;2.20;;;10.30;99.90;;;;;;5046634;28;20148;-55
2022/05/31 02:39:14;;;;;;;5.60;2.22;;;10.30;99.90;;;;;;5047145;28;20136;-55
2022/05/31 02:41:41;;;;;;;6.40;2.10;;;10.30;99.90;;;;;;5047383;28;20127;-55
2022/05/31 02:44:08;;;;;;;4.82;2.33;;;10.20;99.90;;;;;;5046800;28;20511;-53
2022/05/31 02:46:35;;;;;;;2.25;2.05;;;10.30;99.90;;;;;;5046896;28;20148;-56
2022/05/31 02:49:04;;;;;;;3.42;3.05;;;10.20;99.90;;;;;;5046630;28;20048;-55
2022/05/31 02:51:39;;;;;;;5.15;1.77;;;10.20;99.90;;;;;;5039175;28;20080;-56
2022/05/31 02:54:06;;;;;;;3.28;2.20;;;10.20;99.90;;;;;;5046834;28;20114;-56
2022/05/31 02:56:32;;;;;;;3.80;2.33;;;10.10;99.90;;;;;;5046956;28;20118;-55
2022/05/31 02:58:59;;;;;;;2.55;2.20;;;10.10;99.90;;;;;;5046887;28;20129;-54
2022/05/31 03:01:27;;;;;;;5.88;2.20;;;10.10;99.90;;;;;;5045552;28;20551;-59
2022/05/31 03:03:54;;;;;;;3.05;1.67;;;10.10;99.90;;;;;;5046281;28;20132;-54
2022/05/31 03:06:21;;;;;;;3.25;2.00;;;10.10;99.90;;;;;;5046093;28;20136;-55
2022/05/31 03:08:48;;;;;;;2.67;1.65;;;10.10;99.90;;;;;;5046381;28;20421;-57
2022/05/31 03:11:45;;;;;;;2.75;1.85;;;10.10;99.90;;;;;;5046505;28;20052;-54
2022/05/31 03:14:20;;;;;;;2.10;1.90;;;10.10;99.90;;;;;;5045776;28;20136;-55
2022/05/31 03:16:50;;;;;;;3.90;1.73;;;10.00;99.90;;;;;;5076501;28;20084;-55
2022/05/31 03:19:19;;;;;;;3.22;1.80;;;10.00;99.90;;;;;;5045618;28;20056;-53
2022/05/31 03:21:48;;;;;;;4.30;1.52;;;10.10;99.90;;;;;;5045267;28;20131;-53
2022/05/31 03:24:17;;;;;;;2.13;1.30;;;10.10;99.90;;;;;;5043399;28;20586;-54
2022/05/31 03:26:44;;;;;;;2.28;1.17;;;10.10;99.90;;;;;;5045803;28;20135;-53
2022/05/31 03:29:11;;;;;;;2.03;1.20;;;10.10;99.90;;;;;;5060295;28;20099;-53
2022/05/31 03:31:38;;;;;;;3.78;1.23;;;10.10;99.90;;;;;;5028893;28;20148;-53
2022/05/31 03:34:05;;;;;;;1.75;1.30;;;10.10;99.90;;;;;;5044605;28;20049;-55
2022/05/31 03:36:32;;;;;;;2.03;1.60;;;10.00;99.90;;;;;;5044665;28;20139;-55
2022/05/31 03:38:58;;;;;;;3.58;1.27;;;10.00;99.90;;;;;;5046459;28;20119;-55
2022/05/31 03:41:25;;;;;;;4.45;1.40;;;10.00;99.90;;;;;;5046245;28;20308;-54
2022/05/31 03:43:52;;;;;;;2.25;1.40;;;10.00;99.90;;;;;;5046365;28;20160;-55
2022/05/31 03:46:19;;;;;;;4.38;1.38;;;10.00;99.90;;;;;;5046187;28;20072;-53
2022/05/31 03:48:46;;;;;;;1.45;1.20;;;10.00;99.90;;;;;;5046336;28;20144;-52
2022/05/31 03:51:13;;;;;;;1.83;1.45;;;9.90;99.90;;;;;;5046072;28;20087;-51
2022/05/31 03:53:40;;;;;;;1.73;1.35;;;10.00;99.90;;;;;;5045604;28;20143;-54
2022/05/31 03:56:11;;;;;;;4.43;1.95;;;10.00;99.90;;;;;;5046406;28;20554;-53
2022/05/31 03:58:38;;;;;;;3.40;1.52;;;10.00;99.90;;;;;;5043630;28;20053;-51
2022/05/31 04:01:05;;;;;;;2.38;1.25;;;10.00;99.90;;;;;;5042454;28;20559;-52
2022/05/31 04:03:32;;;;;;;2.05;1.40;;;10.10;99.90;;;;;;5037170;28;20152;-49
2022/05/31 04:06:04;;;;;;;3.95;1.15;;;10.00;99.90;;;;;;5043622;28;20076;-51
2022/05/31 04:12:06;;;;;;;5.18;1.75;;;10.10;99.90;;;;;;5016581;28;20063;-54
2022/05/31 04:14:33;;;;;;;1.90;1.40;;;10.10;99.90;;;;;;5028911;28;20721;-54
2022/05/31 04:16:59;;;;;;;2.47;1.77;;;10.10;99.90;;;;;;5027564;28;20124;-53
2022/05/31 04:19:26;;;;;;;1.73;1.40;;;10.00;99.90;;;;;;5025316;28;20046;-57
2022/05/31 04:21:53;;;;;;;3.85;1.60;;;10.10;99.90;;;;;;5029558;28;20368;-55
2022/05/31 04:24:22;;;;;;;4.60;1.38;;;10.10;99.90;;;;;;5018482;28;20133;-55
2022/05/31 04:26:48;;;;;;;3.72;1.20;;;10.10;99.90;;;;;;5023268;28;20099;-55
2022/05/31 04:29:15;;;;;;;2.72;1.50;;;10.10;99.90;;;;;;5023246;28;20141;-56
2022/05/31 04:31:42;;;;;;;1.70;1.42;;;10.10;99.90;;;;;;5025839;28;20085;-56
2022/05/31 04:34:09;;;;;;;2.00;1.33;;;10.10;99.90;;;;;;5022701;28;20048;-57
2022/05/31 04:36:35;;;;;;;2.03;1.02;;;10.10;99.90;;;;;;5027488;28;20486;-56
2022/05/31 04:39:03;;;;;;;3.00;1.67;;;10.10;99.90;;;;;;5022705;28;20084;-56
2022/05/31 04:41:30;;;;;;;4.13;2.30;;;10.10;99.90;;;;;;5019647;28;20092;-56
2022/05/31 04:43:59;;;;;;;2.63;1.50;;;10.20;99.90;;;;;;5020246;28;20089;-55
2022/05/31 04:46:28;;;;;;;3.15;1.48;;;10.20;99.90;;;;;;5027815;28;20114;-56
2022/05/31 04:48:56;;;;;;;2.15;1.70;;;10.20;99.90;;;;;;5029835;28;20694;-55
2022/05/31 04:51:23;;;;;;;2.35;1.30;;;10.20;99.90;;;;;;5030138;28;20298;-55
2022/05/31 04:53:50;;;;;;;3.05;1.63;;;10.20;99.90;;;;;;5029882;28;20092;-56
2022/05/31 04:56:19;;;;;;;4.10;1.50;;;10.20;99.90;;;;;;5029662;28;20369;-56
2022/05/31 04:58:47;;;;;;;2.67;1.73;;;10.20;99.90;;;;;;5028244;28;20057;-55
2022/05/31 05:01:14;;;;;;;5.28;1.83;;;10.20;99.90;;;;;;5028799;28;20105;-54
2022/05/31 05:03:47;;;;;;;2.20;1.00;;;10.20;99.90;;;;;;5019716;28;20064;-55
2022/05/31 05:06:14;;;;;;;1.92;1.40;;;10.20;99.90;;;;;;5025149;28;20088;-54
2022/05/31 05:08:41;;;;;;;2.65;1.40;;;10.20;99.90;;;;;;5027455;28;20599;-55
2022/05/31 05:11:16;;;;;;;4.40;1.40;;;10.30;99.90;;;;;;5027613;28;20550;-55
2022/05/31 05:13:43;;;;;;;3.03;1.30;;;10.20;99.90;;;;;;5028070;28;20738;-54
2022/05/31 05:16:11;;;;;;;4.07;1.25;;;10.30;99.90;;;;;;5029870;28;20080;-55
2022/05/31 05:18:38;;;;;;;2.90;1.10;;;10.30;99.90;;;;;;5027516;28;20132;-56
2022/05/31 05:21:07;;;;;;;2.08;1.50;;;10.20;99.90;;;;;;5020283;28;20049;-56
2022/05/31 05:23:34;;;;;;;1.92;1.30;;;10.40;99.90;;;;;;5024062;28;20463;-54
2022/05/31 05:26:01;;;;;;;5.78;1.30;;;10.30;99.90;;;;;;5001798;28;20155;-54
2022/05/31 05:31:24;;;;;;;2.05;0.98;;;10.30;99.90;;;;;;5025848;28;20081;-52
2022/05/31 05:33:51;;;;;;;1.00;0.90;;;10.30;99.90;;;;;;5027786;28;20509;-55
2022/05/31 05:36:18;;;;;;;1.40;0.93;;;10.30;99.90;;;;;;5025207;28;20057;-56
2022/05/31 05:38:46;;;;;;;2.33;0.85;;;10.40;99.90;;;;;;5006531;28;20037;-54
2022/05/31 05:41:13;;;;;;;2.63;0.80;;;10.40;99.90;;;;;;5029319;28;20046;-55
2022/05/31 05:43:40;;;;;;;2.05;1.25;;;10.30;99.90;;;;;;5038576;28;20066;-55
2022/05/31 05:46:21;;;;;;;0.95;0.88;;;10.30;99.90;;;;;;5049600;28;20102;-52
2022/05/31 05:48:48;;;;;;;1.10;1.00;;;10.40;99.90;;;;;;5041934;28;20056;-56
2022/05/31 05:51:17;;;;;;;1.52;0.98;;;10.40;99.90;;;;;;5042777;28;20064;-56
2022/05/31 05:53:44;;;;;;;1.80;1.02;;;10.30;99.90;;;;;;5031980;28;20073;-56
2022/05/31 05:56:11;;;;;;;1.52;0.80;;;10.40;99.90;;;;;;5034728;28;20080;-55
2022/05/31 05:58:39;;;;;;;1.00;0.73;;;10.40;99.90;;;;;;5035914;28;20077;-57
2022/05/31 06:01:09;;;;;;;1.52;0.93;;;10.50;99.90;;;;;;5030177;28;20076;-56
2022/05/31 06:03:43;;;;;;;1.48;0.90;;;10.50;99.90;;;;;;5003682;28;20045;-56
2022/05/31 06:06:11;;;;;;;2.45;1.33;;;10.50;99.90;;;;;;5025751;28;20602;-56
2022/05/31 06:08:41;;;;;;;5.13;0.90;;;10.50;99.90;;;;;;5007060;28;20079;-56
2022/05/31 06:11:14;;;;;;;1.88;0.80;;;10.50;99.90;;;;;;5008325;28;20082;-56
2022/05/31 06:14:00;;;;;;;1.80;0.93;;;10.60;99.90;;;;;;4995904;28;20088;-55
2022/05/31 06:16:30;;;;;;;1.88;1.10;;;10.60;99.90;;;;;;4998693;28;20196;-52
2022/05/31 06:19:05;;;;;;;3.95;1.10;;;10.70;99.90;;;;;;5008852;28;20422;-55
2022/05/31 06:21:32;;;;;;;1.33;1.10;;;10.70;99.90;;;;;;5003580;28;20046;-54
2022/05/31 06:23:59;;;;;;;2.03;1.20;;;10.80;99.90;;;;;;5007903;28;20048;-51
2022/05/31 06:26:30;;;;;;;3.45;1.05;;;10.80;99.90;;;;;;5008885;28;20090;-56
2022/05/31 06:29:55;;;;;;;2.83;1.40;;;10.90;99.90;;;;;;5025168;28;20073;-58
2022/05/31 06:32:36;;;;;;;5.40;1.17;;;10.90;99.90;;;;;;4990354;28;20110;-56
2022/05/31 06:35:03;;;;;;;1.25;0.90;;;10.90;99.90;;;;;;4996151;28;20067;-56
2022/05/31 06:37:30;;;;;;;2.17;1.17;;;11.00;99.90;;;;;;4994943;28;20053;-57
2022/05/31 06:40:06;;;;;;;1.42;1.10;;;11.00;99.90;;;;;;4990965;28;20046;-56
2022/05/31 06:42:33;;;;;;;4.03;1.30;;;11.00;99.90;;;;;;4992802;28;20042;-54
2022/05/31 06:45:00;;;;;;;1.33;1.08;;;11.10;99.90;;;;;;4993254;28;20050;-56
2022/05/31 06:47:27;;;;;;;4.18;1.45;;;11.10;99.90;;;;;;4985857;28;20580;-56
2022/05/31 06:49:54;;;;;;;2.33;1.20;;;11.10;99.90;;;;;;4981107;28;20684;-54
2022/05/31 06:57:52;;;;;;;3.85;1.20;;;11.20;99.90;;;;;;4985498;28;20058;-58
2022/05/31 07:00:19;;;;;;;5.70;1.52;;;11.20;99.90;;;;;;4995378;28;20472;-56
2022/05/31 07:02:47;;;;;;;6.60;1.42;;;11.20;99.90;;;;;;4986083;28;20073;-55
2022/05/31 07:05:15;;;;;;;1.27;1.13;;;11.30;99.90;;;;;;4987004;28;20121;-56
2022/05/31 07:07:41;;;;;;;5.55;1.98;;;11.40;99.90;;;;;;4977525;28;20089;-55
2022/05/31 07:10:09;;;;;;;6.50;1.38;;;11.40;99.90;;;;;;4986738;28;20074;-57
2022/05/31 07:12:36;;;;;;;4.13;1.25;;;11.40;99.90;;;;;;5001227;28;20121;-57
2022/05/31 07:15:04;;;;;;;5.30;2.88;;;11.50;99.90;;;;;;5005637;28;20056;-55
2022/05/31 07:17:30;;;;;;;3.38;1.40;;;11.70;99.90;;;;;;5003035;28;20050;-56
2022/05/31 07:19:57;;;;;;;1.52;1.00;;;11.80;99.90;;;;;;5004140;28;20142;-56
2022/05/31 07:22:36;;;;;;;2.35;0.95;;;11.90;99.90;;;;;;4996332;28;20046;-56
2022/05/31 07:25:04;;;;;;;2.38;0.98;;;12.00;99.90;;;;;;4994913;28;20085;-53
2022/05/31 07:27:31;;;;;;;2.90;1.10;;;12.10;99.90;;;;;;4997734;28;20152;-54
2022/05/31 07:30:24;;;;;;;3.33;1.10;;;12.20;99.90;;;;;;4996648;28;20046;-55
2022/05/31 07:32:51;;;;;;;6.53;1.50;;;12.30;99.90;;;;;;5027145;28;20042;-54
2022/05/31 07:35:41;;;;;;;3.75;1.27;;;12.40;99.90;;;;;;5009311;28;20050;-54
2022/05/31 07:38:08;;;;;;;5.20;1.08;;;12.50;99.90;;;;;;5013161;28;20081;-55
2022/05/31 07:40:35;;;;;;;1.13;0.80;;;12.50;99.90;;;;;;5019536;28;20064;-56
2022/05/31 07:43:02;;;;;;;3.58;0.90;;;12.60;99.90;;;;;;5012009;28;20046;-54
2022/05/31 07:45:29;;;;;;;9.70;1.25;;;12.60;99.90;;;;;;5003343;28;20141;-54
2022/05/31 07:47:55;;;;;;;6.50;1.38;;;12.70;99.90;;;;;;5001556;28;20056;-56
2022/05/31 07:50:23;;;;;;;2.95;1.10;;;12.70;99.90;;;;;;5006283;28;20438;-54
2022/05/31 07:52:50;;;;;;;3.88;1.10;;;12.80;99.90;;;;;;4998982;28;20092;-55
2022/05/31 07:55:17;;;;;;;4.43;1.17;;;12.80;99.90;;;;;;5004189;28;20511;-56
2022/05/31 08:00:29;;;;;;;4.13;1.23;;;12.70;99.90;;;;;;5006145;28;20468;-54
2022/05/31 08:02:56;;;;;;;2.65;1.10;;;12.80;99.90;;;;;;5002515;28;20149;-54
2022/05/31 08:05:23;;;;;;;5.45;3.20;;;12.80;99.90;;;;;;5007206;28;20099;-51
2022/05/31 08:07:50;;;;;;;1.08;0.60;;;12.80;99.90;;;;;;5000233;28;20049;-55
2022/05/31 08:10:19;;;;;;;2.42;0.90;;;12.90;99.90;;;;;;4978893;28;20500;-53
2022/05/31 08:12:46;;;;;;;2.63;0.95;;;13.00;99.90;;;;;;5006960;28;20145;-59
2022/05/31 08:15:13;;;;;;;3.80;0.80;;;12.90;99.90;;;;;;5005264;28;20169;-55
2022/05/31 08:17:40;;;;;;;4.35;0.80;;;13.00;99.90;;;;;;5002098;28;20034;-57
2022/05/31 08:20:07;;;;;;;2.75;0.80;;;13.10;99.90;;;;;;5004809;28;20571;-55
2022/05/31 08:22:34;;;;;;;8.10;1.45;;;13.20;99.90;;;;;;5004085;28;20189;-53
2022/05/31 08:25:02;;;;;;;5.60;1.05;;;13.20;99.90;;;;;;5005567;28;20135;-54
2022/05/31 08:27:29;;;;;;;2.83;1.00;;;13.30;99.90;;;;;;5005637;28;20213;-51
2022/05/31 08:29:55;;;;;;;5.82;1.30;;;13.30;99.90;;;;;;5006478;28;20131;-56
2022/05/31 08:32:24;;;;;;;8.95;1.35;;;13.40;99.90;;;;;;5003261;28;20045;-52
2022/05/31 08:34:51;;;;;;;4.93;1.27;;;13.40;99.90;;;;;;4986893;28;20054;-57
2022/05/31 08:37:17;;;;;;;3.60;1.17;;;13.50;99.90;;;;;;5002786;28;20104;-54
2022/05/31 08:39:44;;;;;;;3.80;0.95;;;13.50;99.90;;;;;;5005424;28;20148;-55
2022/05/31 08:42:14;;;;;;;1.95;1.05;;;13.50;99.90;;;;;;5004912;28;20049;-56
2022/05/31 08:44:43;;;;;;;3.63;1.35;;;13.40;99.90;;;;;;5005141;28;20053;-58
2022/05/31 08:47:22;;;;;;;3.22;0.95;;;13.40;99.90;;;;;;4988186;28;20392;-54
2022/05/31 08:53:04;;;;;;;1.80;1.02;;;13.40;99.90;;;;;;5005072;28;20338;-55
2022/05/31 08:58:33;;;;;;;1.73;1.10;;;13.30;99.90;;;;;;4981084;28;20468;-55
2022/05/31 09:01:01;;;;;;;8.75;1.23;;;13.30;99.90;;;;;;4988665;28;20523;-53
2022/05/31 09:03:34;;;;;;;4.78;1.10;;;13.40;99.90;;;;;;4984502;28;20049;-56
2022/05/31 09:06:06;;;;;;;5.53;1.00;;;13.40;99.90;;;;;;4981022;28;20049;-53
2022/05/31 09:09:01;;;;;;;8.48;1.45;;;13.40;99.90;;;;;;5003135;28;20169;-55
2022/05/31 09:11:32;;;;;;;5.88;0.90;;;13.50;99.90;;;;;;4965873;28;20133;-53
2022/05/31 09:14:11;;;;;;;4.15;1.25;;;13.60;99.90;;;;;;4988527;28;20092;-49
2022/05/31 09:16:44;;;;;;;4.68;1.48;;;13.60;99.90;;;;;;4964605;28;20527;-53
2022/05/31 09:19:15;;;;;;;5.90;1.30;;;13.70;99.90;;;;;;4989377;28;20058;-56
2022/05/31 09:21:45;;;;;;;6.95;1.10;;;13.80;99.90;;;;;;4996248;28;20350;-55
2022/05/31 09:24:19;;;;;;;4.97;1.17;;;13.90;99.90;;;;;;4995871;28;20085;-54
2022/05/31 09:26:51;;;;;;;3.83;1.20;;;14.00;99.90;;;;;;5002319;28;20057;-54
2022/05/31 09:29:47;;;;;;;1.55;0.77;;;14.10;99.90;;;;;;4989042;28;20049;-53
2022/05/31 09:32:45;;;;;;;3.95;1.10;;;14.30;99.90;;;;;;4978720;28;20045;-52
2022/05/31 09:35:53;;;;;;;5.93;1.00;;;14.30;99.90;;;;;;5005352;28;20077;-57
2022/05/31 09:38:55;;;;;;;2.42;0.80;;;14.50;99.90;;;;;;4994844;28;20049;-57
2022/05/31 09:41:33;;;;;;;1.38;1.15;;;14.60;99.70;;;;;;4982620;28;20041;-53
2022/05/31 09:44:08;;;;;;;2.38;0.93;;;14.50;99.90;;;;;;4987270;28;20117;-57
2022/05/31 09:46:45;;;;;;;4.38;1.10;;;14.60;99.90;;;;;;4984106;28;20129;-57
2022/05/31 09:49:22;;;;;;;0.77;0.60;;;14.80;99.90;;;;;;4986578;28;20053;-54
2022/05/31 09:51:49;;;;;;;4.47;1.20;;;14.80;99.90;;;;;;4980849;28;20062;-58
2022/05/31 09:57:07;;;;;;;2.55;0.80;;;14.80;99.90;;;;;;4999466;28;20561;-53
2022/05/31 09:59:43;;;;;;;1.42;0.80;;;14.80;99.40;;;;;;4977749;28;20054;-54
2022/05/31 10:02:18;;;;;;;2.58;1.05;;;15.00;99.90;;;;;;4995515;28;20078;-54
2022/05/31 10:04:47;;;;;;;2.22;0.70;;;15.30;99.80;;;;;;5004432;28;20137;-55
2022/05/31 10:07:14;;;;;;;1.52;1.08;;;15.50;99.90;;;;;;4982442;28;20184;-53
2022/05/31 10:09:43;;;;;;;5.28;1.17;;;15.40;99.60;;;;;;4976130;28;20094;-54
2022/05/31 10:12:11;;;;;;;2.72;0.80;;;15.30;96.70;;;;;;5000796;28;20054;-56
2022/05/31 10:14:48;;;;;;;3.42;1.02;;;15.20;99.80;;;;;;5002727;28;20054;-55
2022/05/31 10:17:35;;;;;;;2.60;0.90;;;15.20;99.40;;;;;;4986680;28;20398;-57
2022/05/31 10:20:06;;;;;;;1.48;0.80;;;15.30;98.10;;;;;;5003560;28;20137;-58
2022/05/31 10:22:34;;;;;;;6.22;0.85;;;15.30;99.90;;;;;;5002634;28;20046;-56
2022/05/31 10:25:25;;;;;;;8.18;1.17;;;15.50;99.70;;;;;;5003049;28;20056;-57
2022/05/31 10:28:03;;;;;;;5.15;1.00;;;15.60;99.40;;;;;;4998392;28;20549;-56
2022/05/31 10:30:31;;;;;;;4.60;1.20;;;15.80;99.70;;;;;;5003777;28;20132;-56
2022/05/31 10:33:05;;;;;;;3.80;1.15;;;15.80;99.90;;;;;;4971490;28;20089;-56
2022/05/31 10:35:34;;;;;;;1.42;0.85;;;15.70;99.70;;;;;;4992854;28;20870;-52
2022/05/31 10:38:04;;;;;;;1.73;0.80;;;15.80;99.90;;;;;;5003981;28;20095;-56
2022/05/31 10:40:44;;;;;;;3.22;0.90;;;16.10;99.50;;;;;;4994198;28;20085;-57
2022/05/31 10:43:39;;;;;;;2.47;0.80;;;16.20;96.90;;;;;;5003864;28;20132;-55
2022/05/31 10:46:23;;;;;;;1.67;0.80;;;16.00;95.80;;;;;;4997478;28;20050;-56
2022/05/31 10:48:52;;;;;;;6.88;1.48;;;15.60;94.70;;;;;;4982643;28;20069;-57
2022/05/31 10:51:51;;;;;;;2.17;0.93;;;15.70;98.20;;;;;;4993185;28;20246;-55
2022/05/31 10:54:48;;;;;;;4.60;0.90;;;15.70;95.80;;;;;;4994997;28;20109;-54
2022/05/31 10:57:33;;;;;;;4.57;1.00;;;15.70;95.80;;;;;;5001934;28;20137;-57
2022/05/31 11:00:20;;;;;;;3.35;0.98;;;15.70;98.60;;;;;;5003823;28;20138;-59
2022/05/31 11:03:22;;;;;;;4.00;1.20;;;15.70;98.00;;;;;;4986965;28;20104;-59
2022/05/31 11:05:57;;;;;;;5.97;1.17;;;15.70;98.80;;;;;;4981598;28;20058;-55
2022/05/31 11:11:57;;;;;;;1.05;0.68;;;15.60;99.70;;;;;;4983220;28;20054;-58
2022/05/31 11:14:47;;;;;;;0.60;0.60;;;15.70;98.80;;;;;;4979073;28;20054;-58
2022/05/31 11:17:17;;;;;;;3.85;0.90;;;15.70;96.50;;;;;;4983372;28;20089;-56
2022/05/31 11:20:04;;;;;;;1.33;0.57;;;15.70;98.60;;;;;;4983839;28;20077;-58
2022/05/31 11:22:55;;;;;;;0.68;0.52;;;15.80;96.60;;;;;;4978362;28;20085;-58
2022/05/31 11:25:22;;;;;;;1.17;0.63;;;15.90;94.80;;;;;;4980243;28;20117;-57
2022/05/31 11:28:20;;;;;;;4.70;1.02;;;16.00;98.10;;;;;;4983601;28;20096;-57
2022/05/31 11:31:08;;;;;;;1.73;0.90;;;16.20;95.50;;;;;;4983267;28;20459;-57
2022/05/31 11:33:43;;;;;;;1.67;0.68;;;16.30;96.60;;;;;;4982703;28;20572;-57
2022/05/31 11:36:42;;;;;;;1.80;0.90;;;16.60;96.90;;;;;;4979152;28;20093;-57
2022/05/31 11:39:18;;;;;;;2.20;1.10;;;16.80;95.40;;;;;;4974971;28;20656;-55
2022/05/31 11:41:47;;;;;;;2.08;0.80;;;16.80;95.10;;;;;;4982679;28;20320;-61
2022/05/31 11:44:43;;;;;;;7.40;1.48;;;16.80;96.10;;;;;;4984174;28;20200;-60
2022/05/31 11:47:51;;;;;;;8.90;0.95;;;16.70;94.00;;;;;;4985829;28;20218;-57
2022/05/31 11:50:21;;;;;;;2.10;0.70;;;16.30;93.50;;;;;;4982732;28;20047;-57
2022/05/31 11:53:14;;;;;;;4.10;1.00;;;16.10;95.40;;;;;;4985472;28;20070;-57
2022/05/31 11:55:49;;;;;;;10.03;1.93;;;15.50;96.80;;;;;;4984464;28;20118;-57
2022/05/31 11:58:30;;;;;;;8.30;1.25;;;14.70;99.90;;;;;;4984312;28;20126;-55
2022/05/31 12:01:05;;;;;;;3.30;1.17;;;13.90;99.90;;;;;;4984288;28;20046;-53
2022/05/31 12:03:38;;;;;;;2.63;1.20;;;13.10;99.90;;;;;;4979170;28;20074;-54
2022/05/31 12:06:32;;;;;;;4.90;1.45;;;12.90;99.90;;;;;;4975715;28;20050;-55
2022/05/31 12:09:20;;;;;;;3.90;2.13;;;12.80;99.90;;;;;;4985039;28;20043;-54
2022/05/31 12:11:48;;;;;;;2.60;1.38;;;12.90;99.90;;;;;;4983504;28;20620;-51
2022/05/31 12:14:15;;;;;;;4.88;2.00;;;12.80;99.90;;;;;;4973007;28;20088;-57
2022/05/31 12:16:43;;;;;;;2.95;1.35;;;13.00;99.90;;;;;;4986430;28;20121;-56
2022/05/31 12:19:31;;;;;;;2.83;1.50;;;13.00;99.90;;;;;;4984535;28;20057;-52
2022/05/31 12:22:25;;;;;;;3.05;1.20;;;13.30;99.90;;;;;;4983198;28;20074;-56
2022/05/31 12:25:13;;;;;;;3.90;1.45;;;13.60;99.90;;;;;;4969558;28;20082;-51
2022/05/31 12:27:49;;;;;;;2.95;1.20;;;13.90;99.90;;;;;;4977725;28;20378;-56
2022/05/31 12:30:31;;;;;;;5.30;1.40;;;14.20;99.90;;;;;;4981802;28;20081;-56
2022/05/31 12:32:58;;;;;;;2.70;1.02;;;14.30;99.90;;;;;;4975615;28;20405;-56
2022/05/31 12:35:31;;;;;;;5.70;1.05;;;14.00;99.90;;;;;;4987190;28;20153;-56
2022/05/31 12:38:01;;;;;;;3.63;1.45;;;13.80;99.90;;;;;;4987399;28;20051;-58
2022/05/31 12:40:33;;;;;;;2.55;1.73;;;13.70;99.90;;;;;;4984884;28;20081;-60
2022/05/31 12:43:01;;;;;;;6.70;1.40;;;13.60;99.90;;;;;;4985806;28;20115;-55
2022/05/31 12:45:34;;;;;;;4.97;1.02;;;13.70;99.90;;;;;;4983474;28;20508;-55
2022/05/31 12:48:22;;;;;;;2.40;1.00;;;13.60;99.90;;;;;;4987099;28;20565;-55
2022/05/31 12:50:55;;;;;;;4.40;1.30;;;13.60;99.90;;;;;;4987019;28;20050;-54
2022/05/31 12:53:23;;;;;;;4.30;0.90;;;13.40;99.90;;;;;;4989879;28;20042;-55
2022/05/31 12:55:58;;;;;;;2.15;1.02;;;13.60;99.90;;;;;;4986969;28;20069;-57
2022/05/31 12:58:29;;;;;;;3.42;1.50;;;13.70;99.90;;;;;;4989574;28;20556;-55
2022/05/31 13:01:12;;;;;;;1.80;1.17;;;13.80;99.90;;;;;;4638781;28;10000972;-59
2022/05/31 13:03:51;;;;;;;3.15;1.02;;;14.00;99.90;;;;;;4980236;28;20047;-56
2022/05/31 13:06:35;;;;;;;5.30;1.20;;;14.10;99.90;;;;;;4978095;28;20060;-56
2022/05/31 13:09:13;;;;;;;1.88;0.80;;;14.20;99.90;;;;;;4982974;28;20188;-56
2022/05/31 13:20:09;;;;;;;4.07;0.90;;;14.70;99.90;;;;;;4962054;28;20058;-54
2022/05/31 13:22:43;;;;;;;2.60;0.60;;;14.80;99.90;;;;;;4966641;28;20588;-56
2022/05/31 13:25:22;;;;;;;0.98;0.57;;;14.90;99.90;;;;;;4957611;28;20145;-53
2022/05/31 13:27:56;;;;;;;2.63;0.52;;;14.90;99.90;;;;;;4958792;28;20051;-53
2022/05/31 13:30:26;;;;;;;0.85;0.65;;;14.80;99.90;;;;;;4975482;28;20133;-54
2022/05/31 13:32:53;;;;;;;2.33;0.85;;;14.80;99.90;;;;;;4960055;28;20088;-53
2022/05/31 13:35:25;;;;;;;5.55;0.82;;;14.80;99.90;;;;;;4964689;28;20055;-53
2022/05/31 13:38:05;;;;;;;1.90;0.85;;;14.80;99.90;;;;;;4965725;28;20051;-54
2022/05/31 13:40:46;;;;;;;5.40;0.85;;;14.90;99.90;;;;;;4962586;28;20769;-55
2022/05/31 13:43:17;;;;;;;1.83;0.60;;;14.90;99.90;;;;;;4956526;28;20141;-56
2022/05/31 13:45:44;;;;;;;4.45;0.80;;;15.00;99.90;;;;;;4965435;28;20065;-53
2022/05/31 13:48:14;;;;;;;0.82;0.77;;;15.10;99.90;;;;;;4891045;28;20134;-54
2022/05/31 13:50:58;;;;;;;2.35;0.65;;;15.40;99.90;;;;;;4935911;28;20517;-61